General Aviation Weather

Text Reports

Enter one or more of the following location identifiers separated by a space:

Zip Code, Four-Character ICAO or Three-Character IATA airport codes.

METAR - Aviation Routine Weather Report
KPYM - Plymouth, Massachusetts
Updated at 9:52 PM GMT on September 01, 2015 (5:52 PM EDT):
METAR KPYM 012152Z AUTO 12006KT 10SM CLR 24/17 A3004 RMK AO2 SLP170 T02390167
TAF - Terminal Area Forecast
KPYM - Plymouth, Massachusetts
Updated at 9:52 PM GMT on September 01, 2015 (5:52 PM EDT):
No TAF is currently available for this location.
Decoded:
No decoded TAF is available.
PIREP - Pilot Weather Report
KPYM - Plymouth, Massachusetts
Updated at 9:52 PM GMT on September 01, 2015 (5:52 PM EDT):
No PIREP is currently available for this location.
AIRMET - Airmens Meteorological Information
KPYM - Plymouth, Massachusetts
Updated at 9:52 PM GMT on September 01, 2015 (5:52 PM EDT):
No AIRMET is currently available for this location.
SIGMET - Significant Meteorological Information
KPYM - Plymouth, Massachusetts
Updated at 9:52 PM GMT on September 01, 2015 (5:52 PM EDT):
No SIGMET is currently available for this location.
NOTAM - Notice to Airmen
KPYM - Plymouth, Massachusetts
Updated at 9:52 PM GMT on September 01, 2015 (5:52 PM EDT):
No NOTAM is currently available for this location.
Forecast Area
KPYM - Plymouth, Massachusetts
Updated at 9:52 PM GMT on September 01, 2015 (5:52 PM EDT):
No NOTAM is currently available for this location.
Aviation Weather Maps